sensor_id;sensor_type;location;lat;lon;timestamp;pressure;altitude;pressure_sealevel;temperature
72336;BMP280;62171;48.446;8.834;2022-07-19T00:00:13;97988.97;;;13.68
72336;BMP280;62171;48.446;8.834;2022-07-19T00:02:40;97986.03;;;13.66
72336;BMP280;62171;48.446;8.834;2022-07-19T00:05:07;97991.25;;;13.66
72336;BMP280;62171;48.446;8.834;2022-07-19T00:07:33;97987.09;;;13.69
72336;BMP280;62171;48.446;8.834;2022-07-19T00:09:59;97990.78;;;13.71
72336;BMP280;62171;48.446;8.834;2022-07-19T00:12:24;97993.66;;;13.77
72336;BMP280;62171;48.446;8.834;2022-07-19T00:14:50;97979.78;;;13.80
72336;BMP280;62171;48.446;8.834;2022-07-19T00:17:15;97986.97;;;13.76
72336;BMP280;62171;48.446;8.834;2022-07-19T00:19:41;97991.53;;;13.72
72336;BMP280;62171;48.446;8.834;2022-07-19T00:22:06;97977.41;;;13.69
72336;BMP280;62171;48.446;8.834;2022-07-19T00:24:32;97978.97;;;13.63
72336;BMP280;62171;48.446;8.834;2022-07-19T00:26:57;97976.94;;;13.51
72336;BMP280;62171;48.446;8.834;2022-07-19T00:29:22;97985.13;;;13.53
72336;BMP280;62171;48.446;8.834;2022-07-19T00:31:48;97984.34;;;13.56
72336;BMP280;62171;48.446;8.834;2022-07-19T00:34:13;97991.03;;;13.57
72336;BMP280;62171;48.446;8.834;2022-07-19T00:36:38;97988.69;;;13.62
72336;BMP280;62171;48.446;8.834;2022-07-19T00:39:04;97988.16;;;13.71
72336;BMP280;62171;48.446;8.834;2022-07-19T00:41:29;97990.41;;;13.73
72336;BMP280;62171;48.446;8.834;2022-07-19T00:43:56;97986.25;;;13.75
72336;BMP280;62171;48.446;8.834;2022-07-19T00:46:22;97986.25;;;13.75
72336;BMP280;62171;48.446;8.834;2022-07-19T00:48:49;97990.66;;;13.78
72336;BMP280;62171;48.446;8.834;2022-07-19T00:51:16;97979.31;;;13.65
72336;BMP280;62171;48.446;8.834;2022-07-19T00:53:43;97982.41;;;13.60
72336;BMP280;62171;48.446;8.834;2022-07-19T00:56:10;97981.59;;;13.63
72336;BMP280;62171;48.446;8.834;2022-07-19T00:58:37;97976.94;;;13.74
72336;BMP280;62171;48.446;8.834;2022-07-19T01:01:04;97981.81;;;13.72
72336;BMP280;62171;48.446;8.834;2022-07-19T01:03:31;97978.94;;;13.67
72336;BMP280;62171;48.446;8.834;2022-07-19T01:05:59;97979.16;;;13.52
72336;BMP280;62171;48.446;8.834;2022-07-19T01:08:24;97976.00;;;13.41
72336;BMP280;62171;48.446;8.834;2022-07-19T01:10:50;97970.22;;;13.27
72336;BMP280;62171;48.446;8.834;2022-07-19T01:13:16;97970.03;;;13.18
72336;BMP280;62171;48.446;8.834;2022-07-19T01:15:42;97963.03;;;13.11
72336;BMP280;62171;48.446;8.834;2022-07-19T01:18:08;97970.47;;;13.13
72336;BMP280;62171;48.446;8.834;2022-07-19T01:20:33;97964.84;;;13.14
72336;BMP280;62171;48.446;8.834;2022-07-19T01:22:59;97973.75;;;13.17
72336;BMP280;62171;48.446;8.834;2022-07-19T01:25:27;97969.03;;;13.08
72336;BMP280;62171;48.446;8.834;2022-07-19T01:27:53;97969.53;;;13.00
72336;BMP280;62171;48.446;8.834;2022-07-19T01:30:23;97971.56;;;12.88
72336;BMP280;62171;48.446;8.834;2022-07-19T01:32:50;97973.22;;;12.79
72336;BMP280;62171;48.446;8.834;2022-07-19T01:35:16;97973.72;;;12.67
72336;BMP280;62171;48.446;8.834;2022-07-19T01:37:42;97975.66;;;12.63
72336;BMP280;62171;48.446;8.834;2022-07-19T01:40:10;97979.47;;;12.55
72336;BMP280;62171;48.446;8.834;2022-07-19T01:42:37;97981.31;;;12.54
72336;BMP280;62171;48.446;8.834;2022-07-19T01:45:04;97977.56;;;12.59
72336;BMP280;62171;48.446;8.834;2022-07-19T01:47:29;97981.13;;;12.72
72336;BMP280;62171;48.446;8.834;2022-07-19T01:49:55;97984.31;;;12.83
72336;BMP280;62171;48.446;8.834;2022-07-19T01:52:20;97981.63;;;12.90
72336;BMP280;62171;48.446;8.834;2022-07-19T01:54:45;97976.31;;;12.67
72336;BMP280;62171;48.446;8.834;2022-07-19T01:57:11;97966.06;;;12.56
72336;BMP280;62171;48.446;8.834;2022-07-19T01:59:36;97972.53;;;12.45
72336;BMP280;62171;48.446;8.834;2022-07-19T02:02:03;97965.16;;;12.36
72336;BMP280;62171;48.446;8.834;2022-07-19T02:04:28;97963.75;;;12.32
72336;BMP280;62171;48.446;8.834;2022-07-19T02:06:54;97968.22;;;12.31
72336;BMP280;62171;48.446;8.834;2022-07-19T02:09:19;97962.84;;;12.12
72336;BMP280;62171;48.446;8.834;2022-07-19T02:11:45;97968.56;;;11.99
72336;BMP280;62171;48.446;8.834;2022-07-19T02:14:10;97969.31;;;12.00
72336;BMP280;62171;48.446;8.834;2022-07-19T02:16:36;97962.66;;;11.92
72336;BMP280;62171;48.446;8.834;2022-07-19T02:19:03;97966.03;;;11.92
72336;BMP280;62171;48.446;8.834;2022-07-19T02:21:28;97959.00;;;11.89
72336;BMP280;62171;48.446;8.834;2022-07-19T02:23:54;97961.22;;;11.91
72336;BMP280;62171;48.446;8.834;2022-07-19T02:26:20;97959.00;;;11.86
72336;BMP280;62171;48.446;8.834;2022-07-19T02:28:45;97960.16;;;11.85
72336;BMP280;62171;48.446;8.834;2022-07-19T02:31:10;97956.41;;;11.86
72336;BMP280;62171;48.446;8.834;2022-07-19T02:33:36;97951.56;;;11.88
72336;BMP280;62171;48.446;8.834;2022-07-19T02:36:01;97948.53;;;11.93
72336;BMP280;62171;48.446;8.834;2022-07-19T02:38:27;97947.75;;;11.96
72336;BMP280;62171;48.446;8.834;2022-07-19T02:40:52;97949.72;;;11.88
72336;BMP280;62171;48.446;8.834;2022-07-19T02:43:17;97950.84;;;11.84
72336;BMP280;62171;48.446;8.834;2022-07-19T02:45:43;97955.31;;;11.83
72336;BMP280;62171;48.446;8.834;2022-07-19T02:48:09;97956.78;;;11.88
72336;BMP280;62171;48.446;8.834;2022-07-19T02:50:34;97958.41;;;11.75
72336;BMP280;62171;48.446;8.834;2022-07-19T02:53:00;97956.97;;;11.67
72336;BMP280;62171;48.446;8.834;2022-07-19T02:55:26;97956.22;;;11.70
72336;BMP280;62171;48.446;8.834;2022-07-19T02:57:51;97955.00;;;11.78
72336;BMP280;62171;48.446;8.834;2022-07-19T03:00:16;97960.97;;;11.78
72336;BMP280;62171;48.446;8.834;2022-07-19T03:02:42;97949.41;;;11.79
72336;BMP280;62171;48.446;8.834;2022-07-19T03:05:08;97962.88;;;11.74
72336;BMP280;62171;48.446;8.834;2022-07-19T03:07:34;97959.91;;;11.69
72336;BMP280;62171;48.446;8.834;2022-07-19T03:09:59;97954.72;;;11.69
72336;BMP280;62171;48.446;8.834;2022-07-19T03:12:25;97944.41;;;11.58
72336;BMP280;62171;48.446;8.834;2022-07-19T03:14:50;97948.22;;;11.47
72336;BMP280;62171;48.446;8.834;2022-07-19T03:17:15;97935.31;;;11.32
72336;BMP280;62171;48.446;8.834;2022-07-19T03:19:41;97934.25;;;11.26
72336;BMP280;62171;48.446;8.834;2022-07-19T03:22:06;97935.00;;;11.27
72336;BMP280;62171;48.446;8.834;2022-07-19T03:24:32;97933.16;;;11.24
72336;BMP280;62171;48.446;8.834;2022-07-19T03:26:57;97930.97;;;11.22
72336;BMP280;62171;48.446;8.834;2022-07-19T03:29:23;97933.50;;;11.29
72336;BMP280;62171;48.446;8.834;2022-07-19T03:31:48;97935.72;;;11.27
72336;BMP280;62171;48.446;8.834;2022-07-19T03:34:14;97938.63;;;11.37
72336;BMP280;62171;48.446;8.834;2022-07-19T03:36:39;97941.19;;;11.44
72336;BMP280;62171;48.446;8.834;2022-07-19T03:39:04;97943.75;;;11.51
72336;BMP280;62171;48.446;8.834;2022-07-19T03:41:30;97937.75;;;11.54
72336;BMP280;62171;48.446;8.834;2022-07-19T03:43:55;97944.84;;;11.50
72336;BMP280;62171;48.446;8.834;2022-07-19T03:46:21;97937.53;;;11.34
72336;BMP280;62171;48.446;8.834;2022-07-19T03:48:47;97935.38;;;11.25
72336;BMP280;62171;48.446;8.834;2022-07-19T03:51:13;97932.44;;;11.23
72336;BMP280;62171;48.446;8.834;2022-07-19T03:53:39;97949.19;;;11.22
72336;BMP280;62171;48.446;8.834;2022-07-19T03:56:04;97952.16;;;11.21
72336;BMP280;62171;48.446;8.834;2022-07-19T03:58:30;97944.34;;;11.17
72336;BMP280;62171;48.446;8.834;2022-07-19T04:00:55;97946.91;;;11.24
72336;BMP280;62171;48.446;8.834;2022-07-19T04:03:21;97940.94;;;11.27
72336;BMP280;62171;48.446;8.834;2022-07-19T04:05:47;97937.16;;;11.36
72336;BMP280;62171;48.446;8.834;2022-07-19T04:08:12;97945.63;;;11.47
72336;BMP280;62171;48.446;8.834;2022-07-19T04:10:38;97942.91;;;11.61
72336;BMP280;62171;48.446;8.834;2022-07-19T04:13:03;97942.09;;;11.64
72336;BMP280;62171;48.446;8.834;2022-07-19T04:15:29;97946.25;;;11.58
72336;BMP280;62171;48.446;8.834;2022-07-19T04:17:54;97945.19;;;11.52
72336;BMP280;62171;48.446;8.834;2022-07-19T04:20:19;97941.50;;;11.53
72336;BMP280;62171;48.446;8.834;2022-07-19T04:22:45;97942.97;;;11.54
72336;BMP280;62171;48.446;8.834;2022-07-19T04:25:10;97952.63;;;11.53
72336;BMP280;62171;48.446;8.834;2022-07-19T04:27:36;97950.34;;;11.59
72336;BMP280;62171;48.446;8.834;2022-07-19T04:30:02;97956.25;;;11.66
72336;BMP280;62171;48.446;8.834;2022-07-19T04:32:27;97955.75;;;11.78
72336;BMP280;62171;48.446;8.834;2022-07-19T04:34:54;97949.34;;;11.83
72336;BMP280;62171;48.446;8.834;2022-07-19T04:37:19;97957.53;;;11.88
72336;BMP280;62171;48.446;8.834;2022-07-19T04:39:44;97957.47;;;11.92
72336;BMP280;62171;48.446;8.834;2022-07-19T04:42:10;97947.72;;;11.99
72336;BMP280;62171;48.446;8.834;2022-07-19T04:44:35;97951.75;;;12.04
72336;BMP280;62171;48.446;8.834;2022-07-19T04:47:01;97960.22;;;12.15
72336;BMP280;62171;48.446;8.834;2022-07-19T04:49:26;97954.94;;;12.22
72336;BMP280;62171;48.446;8.834;2022-07-19T04:51:51;97966.09;;;12.23
72336;BMP280;62171;48.446;8.834;2022-07-19T04:54:17;97965.69;;;12.24
72336;BMP280;62171;48.446;8.834;2022-07-19T04:56:42;97957.75;;;12.35
72336;BMP280;62171;48.446;8.834;2022-07-19T04:59:08;97953.88;;;12.46
72336;BMP280;62171;48.446;8.834;2022-07-19T05:01:33;97959.09;;;12.46
72336;BMP280;62171;48.446;8.834;2022-07-19T05:03:59;97957.56;;;12.49
72336;BMP280;62171;48.446;8.834;2022-07-19T05:06:25;97958.66;;;12.51
72336;BMP280;62171;48.446;8.834;2022-07-19T05:08:51;97963.06;;;12.54
72336;BMP280;62171;48.446;8.834;2022-07-19T05:11:18;97961.53;;;12.60
72336;BMP280;62171;48.446;8.834;2022-07-19T05:13:43;97960.28;;;12.68
72336;BMP280;62171;48.446;8.834;2022-07-19T05:16:09;97970.53;;;12.82
72336;BMP280;62171;48.446;8.834;2022-07-19T05:18:34;97963.72;;;12.88
72336;BMP280;62171;48.446;8.834;2022-07-19T05:20:59;97966.66;;;12.94
72336;BMP280;62171;48.446;8.834;2022-07-19T05:23:25;97963.72;;;12.88
72336;BMP280;62171;48.446;8.834;2022-07-19T05:25:50;97957.41;;;12.86
72336;BMP280;62171;48.446;8.834;2022-07-19T05:28:15;97957.88;;;12.81
72336;BMP280;62171;48.446;8.834;2022-07-19T05:30:41;97961.53;;;12.87
72336;BMP280;62171;48.446;8.834;2022-07-19T05:33:08;97969.63;;;12.93
72336;BMP280;62171;48.446;8.834;2022-07-19T05:35:33;97964.31;;;13.00
72336;BMP280;62171;48.446;8.834;2022-07-19T05:37:58;97961.28;;;13.05
72336;BMP280;62171;48.446;8.834;2022-07-19T05:40:24;97964.56;;;13.09
72336;BMP280;62171;48.446;8.834;2022-07-19T05:42:49;97958.88;;;13.14
72336;BMP280;62171;48.446;8.834;2022-07-19T05:45:14;97958.78;;;13.21
72336;BMP280;62171;48.446;8.834;2022-07-19T05:47:40;97962.47;;;13.23
72336;BMP280;62171;48.446;8.834;2022-07-19T05:50:06;97957.63;;;13.45
72336;BMP280;62171;48.446;8.834;2022-07-19T05:52:31;97954.53;;;13.53
72336;BMP280;62171;48.446;8.834;2022-07-19T05:54:56;97955.53;;;13.59
72336;BMP280;62171;48.446;8.834;2022-07-19T05:57:22;97953.53;;;13.67
72336;BMP280;62171;48.446;8.834;2022-07-19T05:59:47;97952.59;;;13.77
72336;BMP280;62171;48.446;8.834;2022-07-19T06:02:13;97953.97;;;13.85
72336;BMP280;62171;48.446;8.834;2022-07-19T06:04:40;97948.50;;;13.96
72336;BMP280;62171;48.446;8.834;2022-07-19T06:07:05;97947.50;;;14.09
72336;BMP280;62171;48.446;8.834;2022-07-19T06:09:30;97942.00;;;14.23
72336;BMP280;62171;48.446;8.834;2022-07-19T06:11:56;97942.16;;;14.32
72336;BMP280;62171;48.446;8.834;2022-07-19T06:14:21;97935.97;;;14.42
72336;BMP280;62171;48.446;8.834;2022-07-19T06:16:47;97937.56;;;14.56
72336;BMP280;62171;48.446;8.834;2022-07-19T06:19:12;97940.28;;;14.69
72336;BMP280;62171;48.446;8.834;2022-07-19T06:21:38;97941.13;;;14.82
72336;BMP280;62171;48.446;8.834;2022-07-19T06:24:04;97935.59;;;15.08
72336;BMP280;62171;48.446;8.834;2022-07-19T06:26:29;97940.06;;;15.24
72336;BMP280;62171;48.446;8.834;2022-07-19T06:28:54;97931.16;;;15.38
72336;BMP280;62171;48.446;8.834;2022-07-19T06:31:20;97932.56;;;15.55
72336;BMP280;62171;48.446;8.834;2022-07-19T06:33:48;97916.88;;;15.67
72336;BMP280;62171;48.446;8.834;2022-07-19T06:36:15;97917.81;;;15.73
72336;BMP280;62171;48.446;8.834;2022-07-19T06:38:40;97923.00;;;15.89
72336;BMP280;62171;48.446;8.834;2022-07-19T06:41:10;97926.69;;;16.04
72336;BMP280;62171;48.446;8.834;2022-07-19T06:43:35;97924.50;;;16.15
72336;BMP280;62171;48.446;8.834;2022-07-19T06:46:01;97921.47;;;16.30
72336;BMP280;62171;48.446;8.834;2022-07-19T06:48:26;97918.19;;;16.51
72336;BMP280;62171;48.446;8.834;2022-07-19T06:50:52;97917.78;;;16.65
72336;BMP280;62171;48.446;8.834;2022-07-19T06:53:18;97917.00;;;16.77
72336;BMP280;62171;48.446;8.834;2022-07-19T06:55:43;97917.72;;;16.90
72336;BMP280;62171;48.446;8.834;2022-07-19T06:58:09;97911.59;;;17.05
72336;BMP280;62171;48.446;8.834;2022-07-19T07:00:34;97908.91;;;17.18
72336;BMP280;62171;48.446;8.834;2022-07-19T07:02:59;97902.59;;;17.37
72336;BMP280;62171;48.446;8.834;2022-07-19T07:05:25;97901.69;;;17.53
72336;BMP280;62171;48.446;8.834;2022-07-19T07:07:50;97901.59;;;17.65
72336;BMP280;62171;48.446;8.834;2022-07-19T07:10:17;97902.84;;;17.82
72336;BMP280;62171;48.446;8.834;2022-07-19T07:12:43;97903.25;;;18.02
72336;BMP280;62171;48.446;8.834;2022-07-19T07:15:09;97904.47;;;18.29
72336;BMP280;62171;48.446;8.834;2022-07-19T07:17:35;97901.63;;;18.54
72336;BMP280;62171;48.446;8.834;2022-07-19T07:20:02;97902.06;;;18.70
72336;BMP280;62171;48.446;8.834;2022-07-19T07:22:28;97895.81;;;18.86
72336;BMP280;62171;48.446;8.834;2022-07-19T07:24:53;97893.13;;;19.04
72336;BMP280;62171;48.446;8.834;2022-07-19T07:27:19;97891.97;;;19.14
72336;BMP280;62171;48.446;8.834;2022-07-19T07:29:44;97896.34;;;19.26
72336;BMP280;62171;48.446;8.834;2022-07-19T07:32:09;97886.22;;;19.43
72336;BMP280;62171;48.446;8.834;2022-07-19T07:34:35;97893.78;;;19.59
72336;BMP280;62171;48.446;8.834;2022-07-19T07:37:00;97888.03;;;19.69
72336;BMP280;62171;48.446;8.834;2022-07-19T07:39:25;97882.09;;;19.83
72336;BMP280;62171;48.446;8.834;2022-07-19T07:41:51;97871.63;;;19.98
72336;BMP280;62171;48.446;8.834;2022-07-19T07:44:16;97870.78;;;20.15
72336;BMP280;62171;48.446;8.834;2022-07-19T07:46:42;97870.97;;;20.36
72336;BMP280;62171;48.446;8.834;2022-07-19T07:49:07;97863.22;;;20.47
72336;BMP280;62171;48.446;8.834;2022-07-19T07:51:32;97867.28;;;20.57
72336;BMP280;62171;48.446;8.834;2022-07-19T07:53:59;97862.31;;;20.73
72336;BMP280;62171;48.446;8.834;2022-07-19T07:56:25;97853.94;;;20.89
72336;BMP280;62171;48.446;8.834;2022-07-19T07:58:50;97850.56;;;21.03
72336;BMP280;62171;48.446;8.834;2022-07-19T08:01:16;97849.09;;;21.17
72336;BMP280;62171;48.446;8.834;2022-07-19T08:03:41;97841.97;;;21.38
72336;BMP280;62171;48.446;8.834;2022-07-19T08:06:07;97846.31;;;21.55
72336;BMP280;62171;48.446;8.834;2022-07-19T08:08:33;97839.22;;;21.81
72336;BMP280;62171;48.446;8.834;2022-07-19T08:10:58;97838.09;;;22.08
72336;BMP280;62171;48.446;8.834;2022-07-19T08:13:23;97834.91;;;22.24
72336;BMP280;62171;48.446;8.834;2022-07-19T08:15:50;97824.66;;;22.57
72336;BMP280;62171;48.446;8.834;2022-07-19T08:18:16;97826.31;;;22.80
72336;BMP280;62171;48.446;8.834;2022-07-19T08:20:42;97815.78;;;23.28
72336;BMP280;62171;48.446;8.834;2022-07-19T08:23:08;97818.91;;;23.74
72336;BMP280;62171;48.446;8.834;2022-07-19T08:25:33;97814.47;;;24.19
72336;BMP280;62171;48.446;8.834;2022-07-19T08:28:00;97814.06;;;24.70
72336;BMP280;62171;48.446;8.834;2022-07-19T08:30:26;97806.50;;;25.13
72336;BMP280;62171;48.446;8.834;2022-07-19T08:32:51;97808.75;;;25.55
72336;BMP280;62171;48.446;8.834;2022-07-19T08:35:16;97808.44;;;25.75
72336;BMP280;62171;48.446;8.834;2022-07-19T08:37:42;97812.31;;;26.20
72336;BMP280;62171;48.446;8.834;2022-07-19T08:40:08;97812.06;;;26.53
72336;BMP280;62171;48.446;8.834;2022-07-19T08:42:34;97815.06;;;26.44
72336;BMP280;62171;48.446;8.834;2022-07-19T08:45:00;97809.81;;;26.63
72336;BMP280;62171;48.446;8.834;2022-07-19T08:47:28;97803.19;;;26.69
72336;BMP280;62171;48.446;8.834;2022-07-19T08:49:54;97808.22;;;27.02
72336;BMP280;62171;48.446;8.834;2022-07-19T08:52:21;97797.81;;;26.99
72336;BMP280;62171;48.446;8.834;2022-07-19T08:54:47;97794.69;;;27.19
72336;BMP280;62171;48.446;8.834;2022-07-19T08:57:13;97803.91;;;27.18
72336;BMP280;62171;48.446;8.834;2022-07-19T08:59:57;97809.69;;;27.22
72336;BMP280;62171;48.446;8.834;2022-07-19T09:02:22;97799.16;;;27.29
72336;BMP280;62171;48.446;8.834;2022-07-19T09:05:05;97810.81;;;27.50
72336;BMP280;62171;48.446;8.834;2022-07-19T09:07:34;97811.88;;;27.60
72336;BMP280;62171;48.446;8.834;2022-07-19T09:10:22;97791.22;;;27.98
72336;BMP280;62171;48.446;8.834;2022-07-19T09:15:49;97788.09;;;28.12
72336;BMP280;62171;48.446;8.834;2022-07-19T09:18:30;97796.00;;;28.18
72336;BMP280;62171;48.446;8.834;2022-07-19T09:21:04;97791.34;;;28.63
72336;BMP280;62171;48.446;8.834;2022-07-19T09:23:30;97794.44;;;28.67
72336;BMP280;62171;48.446;8.834;2022-07-19T09:25:57;97792.47;;;29.07
72336;BMP280;62171;48.446;8.834;2022-07-19T09:28:25;97777.25;;;29.15
72336;BMP280;62171;48.446;8.834;2022-07-19T09:30:52;97782.66;;;29.35
72336;BMP280;62171;48.446;8.834;2022-07-19T09:33:23;97789.22;;;29.34
72336;BMP280;62171;48.446;8.834;2022-07-19T09:35:55;97790.75;;;29.43
72336;BMP280;62171;48.446;8.834;2022-07-19T09:38:31;97789.03;;;29.45
72336;BMP280;62171;48.446;8.834;2022-07-19T09:41:16;97782.75;;;29.63
72336;BMP280;62171;48.446;8.834;2022-07-19T09:51:38;97773.72;;;29.87
72336;BMP280;62171;48.446;8.834;2022-07-19T09:54:04;97769.41;;;30.12
72336;BMP280;62171;48.446;8.834;2022-07-19T09:56:31;97768.28;;;30.28
72336;BMP280;62171;48.446;8.834;2022-07-19T09:58:57;97764.47;;;30.44
72336;BMP280;62171;48.446;8.834;2022-07-19T10:01:23;97761.69;;;30.57
72336;BMP280;62171;48.446;8.834;2022-07-19T10:03:54;97757.06;;;30.65
72336;BMP280;62171;48.446;8.834;2022-07-19T10:06:20;97762.41;;;30.58
72336;BMP280;62171;48.446;8.834;2022-07-19T10:08:46;97757.06;;;30.65
72336;BMP280;62171;48.446;8.834;2022-07-19T10:11:12;97751.00;;;30.72
72336;BMP280;62171;48.446;8.834;2022-07-19T10:13:38;97764.72;;;30.97
72336;BMP280;62171;48.446;8.834;2022-07-19T10:16:07;97751.75;;;31.23
72336;BMP280;62171;48.446;8.834;2022-07-19T10:18:44;97753.03;;;31.30
72336;BMP280;62171;48.446;8.834;2022-07-19T10:21:13;97755.41;;;31.56
72336;BMP280;62171;48.446;8.834;2022-07-19T10:23:39;97740.34;;;31.60
72336;BMP280;62171;48.446;8.834;2022-07-19T10:26:40;97734.44;;;31.84
72336;BMP280;62171;48.446;8.834;2022-07-19T10:29:09;97730.13;;;31.81
72336;BMP280;62171;48.446;8.834;2022-07-19T10:31:35;97734.59;;;31.94
72336;BMP280;62171;48.446;8.834;2022-07-19T10:34:11;97733.50;;;32.04
72336;BMP280;62171;48.446;8.834;2022-07-19T10:36:47;97726.72;;;32.03
72336;BMP280;62171;48.446;8.834;2022-07-19T10:39:22;97727.19;;;32.24
72336;BMP280;62171;48.446;8.834;2022-07-19T10:42:12;97721.03;;;32.39
72336;BMP280;62171;48.446;8.834;2022-07-19T10:50:16;97724.50;;;32.32
72336;BMP280;62171;48.446;8.834;2022-07-19T10:52:47;97715.84;;;32.41
72336;BMP280;62171;48.446;8.834;2022-07-19T11:00:53;97700.66;;;32.68
72336;BMP280;62171;48.446;8.834;2022-07-19T11:05:58;97698.25;;;32.87
72336;BMP280;62171;48.446;8.834;2022-07-19T11:08:35;97686.97;;;33.06
72336;BMP280;62171;48.446;8.834;2022-07-19T11:11:10;97677.69;;;32.99
72336;BMP280;62171;48.446;8.834;2022-07-19T11:13:38;97667.97;;;33.04
72336;BMP280;62171;48.446;8.834;2022-07-19T11:16:04;97677.09;;;33.33
72336;BMP280;62171;48.446;8.834;2022-07-19T11:18:31;97678.47;;;33.41
72336;BMP280;62171;48.446;8.834;2022-07-19T11:20:58;97679.88;;;33.42
72336;BMP280;62171;48.446;8.834;2022-07-19T11:23:24;97669.00;;;33.33
72336;BMP280;62171;48.446;8.834;2022-07-19T11:25:49;97671.25;;;33.44
72336;BMP280;62171;48.446;8.834;2022-07-19T11:28:23;97657.66;;;33.76
72336;BMP280;62171;48.446;8.834;2022-07-19T11:30:50;97670.50;;;33.85
72336;BMP280;62171;48.446;8.834;2022-07-19T11:33:18;97669.63;;;33.99
72336;BMP280;62171;48.446;8.834;2022-07-19T11:35:57;97658.47;;;34.29
72336;BMP280;62171;48.446;8.834;2022-07-19T11:38:23;97665.09;;;34.45
72336;BMP280;62171;48.446;8.834;2022-07-19T11:40:58;97650.34;;;34.46
72336;BMP280;62171;48.446;8.834;2022-07-19T11:43:23;97658.78;;;34.86
72336;BMP280;62171;48.446;8.834;2022-07-19T11:45:49;97659.03;;;35.36
72336;BMP280;62171;48.446;8.834;2022-07-19T11:48:29;97654.50;;;35.48
72336;BMP280;62171;48.446;8.834;2022-07-19T11:51:06;97648.16;;;36.31
72336;BMP280;62171;48.446;8.834;2022-07-19T11:53:33;97645.34;;;36.90
72336;BMP280;62171;48.446;8.834;2022-07-19T11:55:59;97651.97;;;37.29
72336;BMP280;62171;48.446;8.834;2022-07-19T11:58:25;97644.94;;;38.58
72336;BMP280;62171;48.446;8.834;2022-07-19T12:00:51;97643.97;;;39.25
72336;BMP280;62171;48.446;8.834;2022-07-19T12:03:19;97642.91;;;39.93
72336;BMP280;62171;48.446;8.834;2022-07-19T12:06:02;97646.03;;;42.00
72336;BMP280;62171;48.446;8.834;2022-07-19T12:11:22;97639.06;;;42.96
72336;BMP280;62171;48.446;8.834;2022-07-19T12:13:50;97628.81;;;42.79
72336;BMP280;62171;48.446;8.834;2022-07-19T12:16:16;97634.91;;;42.60
72336;BMP280;62171;48.446;8.834;2022-07-19T12:18:49;97625.28;;;44.26
72336;BMP280;62171;48.446;8.834;2022-07-19T12:26:43;97617.41;;;45.75
72336;BMP280;62171;48.446;8.834;2022-07-19T12:31:47;97611.78;;;47.19
72336;BMP280;62171;48.446;8.834;2022-07-19T12:34:14;97606.59;;;46.38
72336;BMP280;62171;48.446;8.834;2022-07-19T12:36:39;97605.81;;;46.34
72336;BMP280;62171;48.446;8.834;2022-07-19T12:39:16;97603.22;;;45.59
72336;BMP280;62171;48.446;8.834;2022-07-19T12:41:53;97618.69;;;45.98
72336;BMP280;62171;48.446;8.834;2022-07-19T12:44:18;97601.22;;;45.87
72336;BMP280;62171;48.446;8.834;2022-07-19T12:46:44;97599.41;;;44.96
72336;BMP280;62171;48.446;8.834;2022-07-19T12:49:09;97603.88;;;44.21
72336;BMP280;62171;48.446;8.834;2022-07-19T12:51:35;97596.06;;;45.48
72336;BMP280;62171;48.446;8.834;2022-07-19T12:54:00;97591.72;;;46.81
72336;BMP280;62171;48.446;8.834;2022-07-19T12:56:26;97599.16;;;45.11
72336;BMP280;62171;48.446;8.834;2022-07-19T12:58:51;97587.84;;;46.01
72336;BMP280;62171;48.446;8.834;2022-07-19T13:01:35;97596.81;;;46.04
72336;BMP280;62171;48.446;8.834;2022-07-19T13:04:00;97591.22;;;46.00
72336;BMP280;62171;48.446;8.834;2022-07-19T13:06:26;97585.75;;;45.74
72336;BMP280;62171;48.446;8.834;2022-07-19T13:08:51;97584.25;;;48.96
72336;BMP280;62171;48.446;8.834;2022-07-19T13:11:16;97584.44;;;49.12
72336;BMP280;62171;48.446;8.834;2022-07-19T13:13:42;97586.16;;;49.49
72336;BMP280;62171;48.446;8.834;2022-07-19T13:16:07;97576.59;;;48.93
72336;BMP280;62171;48.446;8.834;2022-07-19T13:18:34;97572.84;;;48.68
72336;BMP280;62171;48.446;8.834;2022-07-19T13:20:59;97578.44;;;48.72
72336;BMP280;62171;48.446;8.834;2022-07-19T13:23:24;97576.38;;;50.24
72336;BMP280;62171;48.446;8.834;2022-07-19T13:25:50;97570.78;;;50.14
72336;BMP280;62171;48.446;8.834;2022-07-19T13:28:15;97558.44;;;50.34
72336;BMP280;62171;48.446;8.834;2022-07-19T13:30:41;97566.00;;;50.24
72336;BMP280;62171;48.446;8.834;2022-07-19T13:33:06;97573.66;;;47.41
72336;BMP280;62171;48.446;8.834;2022-07-19T13:35:31;97573.38;;;48.07
72336;BMP280;62171;48.446;8.834;2022-07-19T13:37:57;97573.91;;;48.41
72336;BMP280;62171;48.446;8.834;2022-07-19T13:40:23;97560.97;;;49.13
72336;BMP280;62171;48.446;8.834;2022-07-19T13:42:48;97557.47;;;48.04
72336;BMP280;62171;48.446;8.834;2022-07-19T13:45:14;97550.31;;;48.30
72336;BMP280;62171;48.446;8.834;2022-07-19T13:47:39;97552.59;;;47.20
72336;BMP280;62171;48.446;8.834;2022-07-19T13:50:05;97552.69;;;48.06
72336;BMP280;62171;48.446;8.834;2022-07-19T13:52:34;97547.06;;;49.05
72336;BMP280;62171;48.446;8.834;2022-07-19T13:54:59;97550.22;;;50.52
72336;BMP280;62171;48.446;8.834;2022-07-19T13:57:24;97551.06;;;51.73
72336;BMP280;62171;48.446;8.834;2022-07-19T13:59:50;97544.16;;;51.40
72336;BMP280;62171;48.446;8.834;2022-07-19T14:02:15;97541.84;;;50.36
72336;BMP280;62171;48.446;8.834;2022-07-19T14:04:40;97544.13;;;48.34
72336;BMP280;62171;48.446;8.834;2022-07-19T14:07:06;97541.97;;;49.47
72336;BMP280;62171;48.446;8.834;2022-07-19T14:09:31;97530.28;;;51.06
72336;BMP280;62171;48.446;8.834;2022-07-19T14:11:58;97536.34;;;48.72
72336;BMP280;62171;48.446;8.834;2022-07-19T14:14:24;97527.78;;;49.09
72336;BMP280;62171;48.446;8.834;2022-07-19T14:16:49;97534.47;;;51.59
72336;BMP280;62171;48.446;8.834;2022-07-19T14:19:15;97519.38;;;52.84
72336;BMP280;62171;48.446;8.834;2022-07-19T14:21:40;97519.81;;;50.66
72336;BMP280;62171;48.446;8.834;2022-07-19T14:24:06;97526.13;;;51.47
72336;BMP280;62171;48.446;8.834;2022-07-19T14:26:33;97535.84;;;51.62
72336;BMP280;62171;48.446;8.834;2022-07-19T14:28:58;97521.19;;;50.67
72336;BMP280;62171;48.446;8.834;2022-07-19T14:31:24;97515.97;;;48.99
72336;BMP280;62171;48.446;8.834;2022-07-19T14:33:49;97522.25;;;49.09
72336;BMP280;62171;48.446;8.834;2022-07-19T14:36:15;97517.63;;;48.62
72336;BMP280;62171;48.446;8.834;2022-07-19T14:38:40;97519.84;;;48.22
72336;BMP280;62171;48.446;8.834;2022-07-19T14:41:06;97512.06;;;48.60